Aérodrome :
LOGIN :

S'inscrire | Disclaimer

   EN    FR    IT 

 










Légende :    VFR   VFR Marginal   IFR   IFR Intensif   IFR Très Intensif
Visi : 
Plafond : 
>= 8 km
>= 3000ft
5 à 8 km
1000 à 3000 ft
1500m à 5 km
500 à 1000 ft
800 à 1500m
200 à 500 ft
< 800m
< 200 ft
Symboles :   Orages  Brouillard  Fortes neiges  Fortes précipitations  Vent > 20 kt
SIGMETs :   Divers  Orages  Givrage  Turbulence  Onde Orograph.  Cendres Volcan.







- Altitude de l'aérodrome : 2776 ft
- Code IATA : VLL


LEVD - Valladolid

DERNIER METAR :
  • 180800Z 09003KT CAVOK 02/M02 Q1017

METARs EXPIRÉS :
  • 180730Z 09005KT CAVOK 01/M02 Q1017
  • 180700Z 10005KT CAVOK 01/M03 Q1016
  • 180630Z 09006KT CAVOK 01/M03 Q1016
  • 180600Z 10009KT CAVOK 02/M02 Q1017

TAF TAF LEVD
Valide du 18 à 06h jusqu'au 19 à 06h UTC


180500Z 1806/1906 17007KT CAVOK TX14/1815Z TN01/1807Z
TEMPO 1904/1906 0100 FZFG VV001
Pas de NOTAMs connus pour ce terrain.
1 SIGMET publié pour la FIR Madrid (LECM) :
 
Orages noyés dans la masse
LECM SIGMET 1 VALID 180727/181000 LEVA
LECM MADRID FIR/UIR EMBD TS FCST SW OF LINE N3733 W00715 - N3607 W00543 TOP FL300 STNR NC=



MET'MAP, la Météo Aéronautique d'un coup d'oeil ! - Copyright ORBIFLY Décembre 2007 - Disclaimer

ORBIFLY MET'MAP TEAM :

Programmation & Développement : Alexandra Zaïnal
Conception & Développement : Baudouin d'Aumeries
Co-Programmation & Développement : Marc-Olivier Méhu
Soutien technique & logistique : Manuel Goepfert

Contact : metmap@orbifly.com




SOURCES & CREDITS :

   NOAA